Time;durP1;ratioP1;P1;durP2;ratioP2;P2;SDS_P1;SDS_P2;PMS_P1;PMS_P2;Temp;Humidity;BMP_temperature;BMP_pressure;BME280_temperature;BME280_humidity;BME280_pressure;Samples;Min_cycle;Max_cycle;Signal;HPM_P1;HPM_P2
2021/06/18 00:01:08;;;;;;;0.10;0.10;;;13.00;99.90;;;;;;5075167;28;20378;-86
2021/06/18 00:03:35;;;;;;;0.20;0.10;;;13.10;99.90;;;;;;5070055;28;20406;-85
2021/06/18 00:06:02;;;;;;;0.10;0.10;;;13.20;99.90;;;;;;5081551;28;20400;-87
2021/06/18 00:08:29;;;;;;;0.30;0.10;;;13.20;99.90;;;;;;5078021;28;20899;-88
2021/06/18 00:10:56;;;;;;;0.50;0.20;;;13.30;99.90;;;;;;5085766;28;20965;-87
2021/06/18 00:13:23;;;;;;;0.13;0.10;;;13.30;99.90;;;;;;5110519;28;20390;-87
2021/06/18 00:15:50;;;;;;;0.20;0.20;;;13.60;99.90;;;;;;5099902;28;20372;-88
2021/06/18 00:18:17;;;;;;;0.10;0.10;;;14.00;99.90;;;;;;5090344;28;20360;-86
2021/06/18 00:20:44;;;;;;;0.38;0.10;;;14.80;99.90;;;;;;5090179;28;20388;-86
2021/06/18 00:23:11;;;;;;;1.00;0.10;;;15.90;99.90;;;;;;5088842;28;20384;-89
2021/06/18 00:25:39;;;;;;;0.40;0.10;;;16.20;99.20;;;;;;5074714;28;21105;-88
2021/06/18 00:28:06;;;;;;;0.15;0.10;;;16.10;98.90;;;;;;5081841;28;20418;-90
2021/06/18 00:30:33;;;;;;;0.55;0.10;;;15.70;99.00;;;;;;5084163;28;20377;-87
2021/06/18 00:33:00;;;;;;;0.20;0.20;;;15.30;99.90;;;;;;5085404;28;20392;-88
2021/06/18 00:35:27;;;;;;;0.65;0.20;;;14.90;99.90;;;;;;5090190;28;20481;-89
2021/06/18 00:37:54;;;;;;;0.20;0.20;;;14.70;99.90;;;;;;5090438;28;20868;-88
2021/06/18 00:40:21;;;;;;;0.65;0.30;;;14.50;99.90;;;;;;5086999;28;21777;-89
2021/06/18 00:42:48;;;;;;;0.43;0.30;;;14.40;99.90;;;;;;5085591;28;20480;-87
2021/06/18 00:45:15;;;;;;;0.95;0.30;;;14.40;99.90;;;;;;5085066;28;20415;-87
2021/06/18 00:47:58;;;;;;;0.43;0.10;;;14.30;99.90;;;;;;5085482;28;20388;-85
2021/06/18 00:50:26;;;;;;;0.57;0.20;;;14.40;99.90;;;;;;5085636;28;20396;-87
2021/06/18 00:52:53;;;;;;;0.13;0.10;;;14.40;99.90;;;;;;5080114;28;20423;-89
2021/06/18 00:55:20;;;;;;;1.77;0.20;;;14.30;99.90;;;;;;5094811;28;20503;-87
2021/06/18 00:57:47;;;;;;;1.13;0.20;;;14.40;99.90;;;;;;5089216;28;20810;-87
2021/06/18 01:00:15;;;;;;;0.77;0.10;;;14.40;99.90;;;;;;5105509;28;20378;-86
2021/06/18 01:02:42;;;;;;;1.20;0.30;;;14.40;99.90;;;;;;5089187;28;20450;-88
2021/06/18 01:05:12;;;;;;;1.10;0.10;;;14.40;99.90;;;;;;5102487;28;20417;-87
2021/06/18 01:07:52;;;;;;;1.30;0.30;;;14.40;99.90;;;;;;5090247;28;20380;-87
2021/06/18 01:10:41;;;;;;;1.10;0.30;;;14.40;99.90;;;;;;5089133;28;20533;-87
2021/06/18 01:13:18;;;;;;;0.50;0.20;;;14.40;99.90;;;;;;5083912;28;20471;-87
2021/06/18 01:15:56;;;;;;;0.77;0.10;;;14.40;99.90;;;;;;5086282;28;20394;-86
2021/06/18 01:18:56;;;;;;;0.55;0.20;;;14.50;99.90;;;;;;5088965;28;20886;-89
2021/06/18 01:21:33;;;;;;;0.22;0.10;;;14.50;99.90;;;;;;5091392;28;20399;-86
2021/06/18 01:24:30;;;;;;;0.10;0.10;;;14.60;99.90;;;;;;5088205;28;20395;-90
2021/06/18 01:27:11;;;;;;;0.10;0.10;;;14.60;99.90;;;;;;5084974;28;20450;-90
2021/06/18 01:29:54;;;;;;;0.38;0.20;;;14.70;99.90;;;;;;5081809;28;20934;-88
2021/06/18 01:32:30;;;;;;;0.38;0.35;;;14.70;99.90;;;;;;5088440;28;20420;-93
2021/06/18 01:34:57;;;;;;;4.82;0.50;;;14.70;99.90;;;;;;5085466;28;20490;-87
2021/06/18 01:37:28;;;;;;;0.90;0.30;;;14.70;99.90;;;;;;5091888;28;20974;-87
2021/06/18 01:40:01;;;;;;;0.40;0.20;;;14.90;99.90;;;;;;5090128;28;20467;-85
2021/06/18 01:42:30;;;;;;;0.90;0.90;;;15.10;99.90;;;;;;5086094;28;20400;-87
2021/06/18 01:44:57;;;;;;;5.82;5.45;;;15.40;99.90;;;;;;5091011;28;20478;-89
2021/06/18 01:47:25;;;;;;;3.92;3.70;;;15.70;99.90;;;;;;5086323;28;20403;-87
2021/06/18 01:49:54;;;;;;;1.70;0.70;;;16.00;99.60;;;;;;5088419;28;20460;-86
2021/06/18 01:52:22;;;;;;;0.50;0.50;;;16.20;99.50;;;;;;5086318;28;20392;-87
2021/06/18 01:54:52;;;;;;;0.60;0.35;;;16.30;99.50;;;;;;5083744;28;20425;-85
2021/06/18 01:57:22;;;;;;;0.40;0.20;;;16.30;98.60;;;;;;5081536;28;20415;-88
2021/06/18 01:59:52;;;;;;;0.40;0.20;;;16.20;98.70;;;;;;5074815;28;20409;-88
2021/06/18 02:02:21;;;;;;;1.90;0.20;;;16.10;97.80;;;;;;5080422;28;20480;-87
2021/06/18 02:04:49;;;;;;;0.35;0.20;;;16.00;98.60;;;;;;5090453;28;20774;-89
2021/06/18 02:07:16;;;;;;;0.20;0.20;;;15.80;98.90;;;;;;5088868;28;20403;-87
2021/06/18 02:09:46;;;;;;;0.50;0.20;;;15.70;99.10;;;;;;5085274;28;20398;-89
2021/06/18 02:12:16;;;;;;;0.30;0.10;;;15.60;99.70;;;;;;5072030;28;20374;-91
2021/06/18 02:14:43;;;;;;;0.10;0.10;;;15.50;99.60;;;;;;5086021;28;20389;-92
2021/06/18 02:17:11;;;;;;;0.30;0.10;;;15.40;99.60;;;;;;5092909;28;20813;-92
2021/06/18 02:19:41;;;;;;;0.30;0.30;;;15.50;99.50;;;;;;5091578;28;20389;-89
2021/06/18 02:22:12;;;;;;;1.67;0.20;;;15.50;99.20;;;;;;5096797;28;20408;-88
2021/06/18 02:24:42;;;;;;;0.17;0.10;;;15.50;98.40;;;;;;5095563;28;20859;-89
2021/06/18 02:27:14;;;;;;;1.90;0.20;;;15.50;98.80;;;;;;5094046;28;20388;-90
2021/06/18 02:29:42;;;;;;;0.20;0.20;;;15.60;99.30;;;;;;5081038;28;20595;-89
2021/06/18 02:32:13;;;;;;;0.23;0.10;;;15.60;98.50;;;;;;5094685;28;20380;-92
2021/06/18 02:34:41;;;;;;;1.45;0.10;;;15.60;98.10;;;;;;5099090;28;20839;-92
2021/06/18 02:37:10;;;;;;;0.30;0.17;;;15.70;98.70;;;;;;5099707;28;20404;-92
2021/06/18 02:39:38;;;;;;;0.20;0.10;;;15.60;99.00;;;;;;5090700;28;20396;-92
2021/06/18 02:42:06;;;;;;;0.20;0.10;;;15.70;98.40;;;;;;5084071;28;20418;-89
2021/06/18 02:44:33;;;;;;;0.90;0.13;;;15.60;98.40;;;;;;5097242;28;20473;-91
2021/06/18 02:47:08;;;;;;;0.60;0.17;;;15.50;98.60;;;;;;5090473;28;20940;-95
2021/06/18 02:50:07;;;;;;;0.10;0.10;;;15.40;99.30;;;;;;5078047;28;20476;-94
2021/06/18 02:53:01;;;;;;;0.55;0.40;;;15.50;99.20;;;;;;5092703;28;20468;-92
2021/06/18 02:55:53;;;;;;;0.50;0.20;;;15.60;99.10;;;;;;5075367;28;20393;-91
2021/06/18 02:58:35;;;;;;;1.17;0.27;;;15.70;99.10;;;;;;5090477;28;20391;-88
2021/06/18 03:01:04;;;;;;;0.20;0.10;;;15.70;99.20;;;;;;5090400;28;20388;-94
2021/06/18 03:03:38;;;;;;;2.10;0.20;;;15.80;99.90;;;;;;5100496;28;20382;-91
2021/06/18 03:06:07;;;;;;;3.33;0.32;;;15.80;99.30;;;;;;5089235;28;20486;-89
2021/06/18 03:08:50;;;;;;;0.20;0.20;;;15.90;99.40;;;;;;5077393;28;20394;-92
2021/06/18 03:11:20;;;;;;;0.35;0.20;;;16.00;97.60;;;;;;5091906;28;20384;-88
2021/06/18 03:13:51;;;;;;;1.20;0.10;;;16.00;98.70;;;;;;5101952;28;20369;-89
2021/06/18 03:16:19;;;;;;;1.73;0.20;;;16.10;97.40;;;;;;5099984;28;20381;-93
2021/06/18 03:18:47;;;;;;;1.80;0.20;;;16.20;98.10;;;;;;5075327;28;20362;-93
2021/06/18 03:21:14;;;;;;;0.45;0.10;;;16.10;96.90;;;;;;5079988;28;20382;-92
2021/06/18 03:23:45;;;;;;;0.43;0.20;;;16.00;98.00;;;;;;5090782;28;20392;-89
2021/06/18 03:26:12;;;;;;;0.10;0.10;;;15.90;98.60;;;;;;5095475;28;20431;-92
2021/06/18 03:28:40;;;;;;;0.60;0.17;;;15.80;98.00;;;;;;5088631;28;20943;-93
2021/06/18 03:31:10;;;;;;;0.40;0.17;;;15.70;98.80;;;;;;5091104;28;20489;-93
2021/06/18 03:33:39;;;;;;;0.40;0.20;;;15.60;99.40;;;;;;5092658;28;20392;-88
2021/06/18 03:36:36;;;;;;;1.90;0.30;;;15.40;99.70;;;;;;5095420;28;20392;-89
2021/06/18 03:39:07;;;;;;;1.30;0.22;;;15.30;99.90;;;;;;5081248;28;20384;-89
2021/06/18 03:41:34;;;;;;;1.05;0.50;;;15.30;99.90;;;;;;5094509;28;20415;-88
2021/06/18 03:44:01;;;;;;;0.80;0.30;;;15.40;99.90;;;;;;5097157;28;20883;-88
2021/06/18 03:46:30;;;;;;;1.67;0.30;;;15.40;99.90;;;;;;5097878;28;20408;-88
2021/06/18 03:48:59;;;;;;;1.45;0.20;;;15.50;99.90;;;;;;5101173;28;20391;-92
2021/06/18 03:51:26;;;;;;;2.30;0.30;;;15.50;99.90;;;;;;5078916;28;20386;-91
2021/06/18 03:53:58;;;;;;;0.45;0.20;;;15.40;99.90;;;;;;5093747;28;20397;-92
2021/06/18 03:56:26;;;;;;;1.80;0.40;;;15.20;99.90;;;;;;5090169;28;20487;-93
2021/06/18 03:58:55;;;;;;;1.40;0.30;;;15.20;99.90;;;;;;5097577;28;20380;-91
2021/06/18 04:01:24;;;;;;;0.68;0.28;;;15.10;99.90;;;;;;5094028;28;20376;-90
2021/06/18 04:03:52;;;;;;;2.28;0.20;;;15.00;99.90;;;;;;5093451;28;20380;-88
2021/06/18 04:06:20;;;;;;;0.10;0.10;;;15.00;99.90;;;;;;5089879;28;20454;-93
2021/06/18 04:08:48;;;;;;;1.60;0.10;;;15.10;99.90;;;;;;5092032;28;20392;-93
2021/06/18 04:11:15;;;;;;;0.40;0.10;;;15.20;99.90;;;;;;5081463;28;20397;-88
2021/06/18 04:13:43;;;;;;;0.20;0.10;;;15.30;99.30;;;;;;5072555;28;20362;-93
2021/06/18 04:16:12;;;;;;;0.10;0.10;;;15.50;99.10;;;;;;5071691;28;20900;-89
2021/06/18 04:18:46;;;;;;;0.27;0.10;;;15.70;98.80;;;;;;5085822;28;20376;-94
2021/06/18 04:21:24;;;;;;;0.10;0.10;;;15.90;98.00;;;;;;5102399;28;20384;-92
2021/06/18 04:23:51;;;;;;;0.60;0.10;;;16.00;97.80;;;;;;5101753;28;20839;-89
2021/06/18 04:26:20;;;;;;;0.40;0.10;;;16.10;95.90;;;;;;5093630;28;20412;-88
2021/06/18 04:28:48;;;;;;;0.63;0.10;;;16.10;96.30;;;;;;5088798;28;20390;-90
2021/06/18 04:31:15;;;;;;;0.20;0.10;;;16.00;96.60;;;;;;5088297;28;20435;-93
2021/06/18 04:33:42;;;;;;;0.20;0.10;;;16.00;95.50;;;;;;5085075;28;20407;-93
2021/06/18 04:36:09;;;;;;;0.70;0.00;;;15.90;95.70;;;;;;5090764;28;20388;-94
2021/06/18 04:38:39;;;;;;;0.08;0.08;;;15.80;95.90;;;;;;5090459;28;20459;-95
2021/06/18 04:41:07;;;;;;;0.50;0.10;;;15.80;96.80;;;;;;5093001;28;20403;-94
2021/06/18 04:43:34;;;;;;;0.70;0.10;;;15.80;96.80;;;;;;5093266;28;20751;-93
2021/06/18 04:46:02;;;;;;;0.98;0.20;;;15.80;96.50;;;;;;5074207;28;20416;-92
2021/06/18 04:48:29;;;;;;;0.47;0.20;;;15.80;97.00;;;;;;5074538;28;20863;-95
2021/06/18 04:50:57;;;;;;;0.55;0.25;;;15.80;97.50;;;;;;5089362;28;20380;-93
2021/06/18 04:53:24;;;;;;;0.30;0.10;;;15.70;97.20;;;;;;5097766;28;20380;-93
2021/06/18 04:55:51;;;;;;;0.20;0.10;;;15.70;96.20;;;;;;5109477;28;20446;-93
2021/06/18 04:58:19;;;;;;;1.00;0.10;;;15.70;96.60;;;;;;5115145;28;20469;-95
2021/06/18 05:00:46;;;;;;;0.10;0.00;;;15.70;97.10;;;;;;5093762;28;20392;-91
2021/06/18 05:03:13;;;;;;;1.10;0.30;;;15.70;96.20;;;;;;5084320;28;20407;-95
2021/06/18 05:05:40;;;;;;;0.10;0.10;;;15.60;96.40;;;;;;5098279;28;20476;-95
2021/06/18 05:08:07;;;;;;;0.15;0.10;;;15.50;96.60;;;;;;5097631;28;20377;-92
2021/06/18 05:10:34;;;;;;;0.30;0.10;;;15.60;96.90;;;;;;5094286;28;20420;-91
2021/06/18 05:13:01;;;;;;;1.80;0.30;;;15.60;97.10;;;;;;5088745;28;20783;-95
2021/06/18 05:15:28;;;;;;;1.15;0.20;;;15.60;97.50;;;;;;5094352;28;20418;-89
2021/06/18 05:17:55;;;;;;;0.20;0.10;;;15.70;98.00;;;;;;5093951;28;20867;-88
2021/06/18 05:20:23;;;;;;;0.15;0.08;;;15.80;97.80;;;;;;5095344;28;20479;-91
2021/06/18 05:22:50;;;;;;;1.00;0.10;;;15.80;96.80;;;;;;5095175;28;20400;-88
2021/06/18 05:25:17;;;;;;;0.22;0.10;;;15.70;97.00;;;;;;5085270;28;20409;-93
2021/06/18 05:27:45;;;;;;;0.30;0.17;;;15.60;97.00;;;;;;5095160;28;20364;-92
2021/06/18 05:30:14;;;;;;;1.40;0.20;;;15.60;97.80;;;;;;5081979;28;20608;-92
2021/06/18 05:32:41;;;;;;;1.05;0.10;;;15.50;97.00;;;;;;5092638;28;20391;-91
2021/06/18 05:35:09;;;;;;;0.30;0.10;;;15.40;98.40;;;;;;5094828;28;20392;-92
2021/06/18 05:37:36;;;;;;;0.82;0.20;;;15.30;98.70;;;;;;5094634;28;20392;-95
2021/06/18 05:40:05;;;;;;;2.10;0.10;;;15.10;98.90;;;;;;5092987;28;20380;-89
2021/06/18 05:42:33;;;;;;;0.30;0.13;;;15.10;98.30;;;;;;5094367;28;20901;-91
2021/06/18 05:45:00;;;;;;;0.20;0.20;;;15.00;98.20;;;;;;5094408;28;20407;-91
2021/06/18 05:47:27;;;;;;;0.40;0.20;;;14.90;98.50;;;;;;5097388;28;20555;-92
2021/06/18 05:49:54;;;;;;;0.20;0.20;;;14.80;98.70;;;;;;5093816;28;20375;-93
2021/06/18 05:52:21;;;;;;;1.30;0.25;;;14.80;98.90;;;;;;5099624;28;20387;-91
2021/06/18 05:54:48;;;;;;;0.25;0.13;;;14.70;99.10;;;;;;5097595;28;20387;-93
2021/06/18 05:57:15;;;;;;;0.65;0.10;;;14.60;99.10;;;;;;5091212;28;20376;-90
2021/06/18 05:59:43;;;;;;;0.10;0.00;;;14.60;98.80;;;;;;5091169;28;20963;-89
2021/06/18 06:02:10;;;;;;;0.30;0.20;;;14.50;99.40;;;;;;5078822;28;20485;-92
2021/06/18 06:04:37;;;;;;;0.70;0.10;;;14.50;99.50;;;;;;5093031;28;20587;-90
2021/06/18 06:07:04;;;;;;;1.90;0.10;;;14.40;99.00;;;;;;5091813;28;20396;-89
2021/06/18 06:09:31;;;;;;;0.30;0.10;;;14.30;99.90;;;;;;5090192;28;20413;-95
2021/06/18 06:11:58;;;;;;;0.60;0.10;;;14.30;99.90;;;;;;5083014;28;20403;-89
2021/06/18 06:14:25;;;;;;;0.10;0.10;;;14.20;99.90;;;;;;5096329;28;20415;-90
2021/06/18 06:16:52;;;;;;;1.17;0.20;;;14.20;99.90;;;;;;5087563;28;20395;-89
2021/06/18 06:19:19;;;;;;;1.05;0.10;;;14.10;99.90;;;;;;5093848;28;20388;-91
2021/06/18 06:21:46;;;;;;;1.00;0.20;;;14.10;99.90;;;;;;5098328;28;20388;-90
2021/06/18 06:24:13;;;;;;;0.30;0.10;;;14.00;99.90;;;;;;5074918;28;20374;-87
2021/06/18 06:26:41;;;;;;;1.75;0.30;;;14.00;99.90;;;;;;5089017;28;20450;-90
2021/06/18 06:29:08;;;;;;;0.63;0.10;;;13.90;99.90;;;;;;5093582;28;20388;-92
2021/06/18 06:31:35;;;;;;;2.08;0.30;;;13.80;99.90;;;;;;5091134;28;20400;-91
2021/06/18 06:34:02;;;;;;;0.10;0.10;;;13.80;99.90;;;;;;5091185;28;20398;-90
2021/06/18 06:36:29;;;;;;;2.55;0.30;;;13.80;99.90;;;;;;5092592;28;20399;-92
2021/06/18 06:38:56;;;;;;;1.20;0.60;;;13.70;99.90;;;;;;5092717;28;20388;-93
2021/06/18 06:41:23;;;;;;;1.50;0.90;;;13.70;99.90;;;;;;5092603;28;20432;-95
2021/06/18 06:43:50;;;;;;;2.00;0.60;;;13.70;99.90;;;;;;5094319;28;20460;-88
2021/06/18 06:46:22;;;;;;;0.80;0.60;;;13.70;99.90;;;;;;5092803;28;20883;-92
2021/06/18 06:48:50;;;;;;;0.90;0.40;;;13.60;99.90;;;;;;5093651;28;20365;-88
2021/06/18 06:51:17;;;;;;;0.95;0.30;;;13.60;99.90;;;;;;5093600;28;21223;-91
2021/06/18 06:53:44;;;;;;;0.90;0.20;;;13.60;99.90;;;;;;5092813;28;20380;-88
2021/06/18 06:56:12;;;;;;;0.68;0.22;;;13.70;99.90;;;;;;5091168;28;20384;-88
2021/06/18 06:58:39;;;;;;;1.40;0.30;;;13.60;99.90;;;;;;5085782;28;20434;-90
2021/06/18 07:01:06;;;;;;;0.47;0.25;;;13.60;99.90;;;;;;5092159;28;20750;-90
2021/06/18 07:03:33;;;;;;;1.35;0.30;;;13.60;99.90;;;;;;5090426;28;20426;-89
2021/06/18 07:06:00;;;;;;;0.85;0.30;;;13.60;99.90;;;;;;5092743;28;20462;-90
2021/06/18 07:08:27;;;;;;;0.68;0.40;;;13.60;99.90;;;;;;5091353;28;20400;-90
2021/06/18 07:10:54;;;;;;;0.40;0.40;;;13.60;99.90;;;;;;5093997;28;20767;-89
2021/06/18 07:13:21;;;;;;;1.23;0.40;;;13.50;99.90;;;;;;5091740;28;20373;-86
2021/06/18 07:15:50;;;;;;;1.10;0.38;;;13.60;99.90;;;;;;5102988;28;20364;-89
2021/06/18 07:18:17;;;;;;;0.22;0.17;;;13.60;99.90;;;;;;5106874;28;20555;-92
2021/06/18 07:20:45;;;;;;;1.50;0.25;;;13.50;99.90;;;;;;5099456;28;20685;-90
2021/06/18 07:23:13;;;;;;;0.25;0.25;;;13.50;99.90;;;;;;5111544;28;20875;-87
2021/06/18 07:25:42;;;;;;;0.30;0.20;;;13.60;99.90;;;;;;5092713;28;20419;-87
2021/06/18 07:28:09;;;;;;;0.30;0.30;;;13.50;99.90;;;;;;5087423;28;20390;-91
2021/06/18 07:30:37;;;;;;;2.20;0.30;;;13.60;99.90;;;;;;5078668;28;20372;-86
2021/06/18 07:33:05;;;;;;;0.90;0.40;;;13.50;99.90;;;;;;5089732;28;20389;-89
2021/06/18 07:35:34;;;;;;;0.60;0.40;;;13.50;99.90;;;;;;5092140;28;20388;-87
2021/06/18 07:38:01;;;;;;;0.73;0.40;;;13.50;99.90;;;;;;5092374;28;20380;-89
2021/06/18 07:40:29;;;;;;;1.00;0.40;;;13.50;99.90;;;;;;5090637;28;20413;-90
2021/06/18 07:42:56;;;;;;;0.40;0.40;;;13.50;99.90;;;;;;5094119;28;20889;-88
2021/06/18 07:45:23;;;;;;;1.30;0.50;;;13.50;99.90;;;;;;5092236;28;20408;-90
2021/06/18 07:47:50;;;;;;;0.75;0.47;;;13.50;99.90;;;;;;5091238;28;20391;-89
2021/06/18 07:50:18;;;;;;;0.90;0.60;;;13.40;99.90;;;;;;5093928;28;20399;-94
2021/06/18 07:52:45;;;;;;;0.35;0.35;;;13.50;99.90;;;;;;5093392;28;20455;-94
2021/06/18 07:55:17;;;;;;;0.47;0.40;;;13.40;99.90;;;;;;5090026;28;20942;-92
2021/06/18 07:57:45;;;;;;;0.60;0.40;;;13.40;99.90;;;;;;5092469;28;20469;-90
2021/06/18 08:00:12;;;;;;;0.60;0.60;;;13.40;99.90;;;;;;5090524;28;20392;-90
2021/06/18 08:02:39;;;;;;;1.40;0.60;;;13.40;99.90;;;;;;5094634;28;20387;-92
2021/06/18 08:05:10;;;;;;;0.90;0.60;;;13.40;99.90;;;;;;5091966;28;20835;-89
2021/06/18 08:07:41;;;;;;;1.42;0.50;;;13.30;99.90;;;;;;5091976;28;20383;-89
2021/06/18 08:10:10;;;;;;;0.80;0.73;;;13.30;99.90;;;;;;5092773;28;20477;-89
2021/06/18 08:12:37;;;;;;;2.50;0.90;;;13.30;99.90;;;;;;5097297;28;20406;-93
2021/06/18 08:15:05;;;;;;;1.10;0.90;;;13.30;99.90;;;;;;5104954;28;20388;-92
2021/06/18 08:17:33;;;;;;;1.98;0.80;;;13.30;99.90;;;;;;5096123;28;20863;-94
2021/06/18 08:20:00;;;;;;;1.50;0.77;;;13.30;99.90;;;;;;5086813;28;20946;-91
2021/06/18 08:22:27;;;;;;;0.93;0.70;;;13.30;99.90;;;;;;5090273;28;20934;-93
2021/06/18 08:24:54;;;;;;;1.25;1.00;;;13.30;99.90;;;;;;5093033;28;20404;-89
2021/06/18 08:27:21;;;;;;;1.98;1.38;;;13.30;99.90;;;;;;5089792;28;20464;-89
2021/06/18 08:29:51;;;;;;;2.10;0.88;;;13.30;99.90;;;;;;5092006;28;20406;-89
2021/06/18 08:32:19;;;;;;;0.95;0.70;;;13.20;99.90;;;;;;5092730;28;20408;-95
2021/06/18 08:34:47;;;;;;;0.50;0.50;;;13.30;99.90;;;;;;5092942;28;20372;-93
2021/06/18 08:37:14;;;;;;;0.68;0.40;;;13.30;99.90;;;;;;5098024;28;20404;-91
2021/06/18 08:39:41;;;;;;;0.65;0.55;;;13.30;99.90;;;;;;5091650;28;20385;-94
2021/06/18 08:42:10;;;;;;;1.60;0.60;;;13.20;99.90;;;;;;5091373;28;20472;-91
2021/06/18 08:44:37;;;;;;;1.42;0.95;;;13.20;99.90;;;;;;5087474;28;20393;-93
2021/06/18 08:47:05;;;;;;;2.20;1.13;;;13.10;99.90;;;;;;5084471;28;20400;-94
2021/06/18 08:49:32;;;;;;;1.52;0.80;;;13.10;99.90;;;;;;5095128;28;20473;-95
2021/06/18 08:51:59;;;;;;;0.75;0.50;;;13.00;99.90;;;;;;5094366;28;20377;-93
2021/06/18 08:54:41;;;;;;;0.80;0.50;;;12.90;99.90;;;;;;5094235;28;20361;-96
2021/06/18 08:57:10;;;;;;;0.45;0.45;;;12.80;99.90;;;;;;5108631;28;20738;-94
2021/06/18 08:59:37;;;;;;;0.80;0.70;;;12.70;99.90;;;;;;5093187;28;20551;-92
2021/06/18 09:02:04;;;;;;;0.90;0.70;;;12.60;99.90;;;;;;5078694;28;20402;-92
2021/06/18 09:04:32;;;;;;;0.90;0.80;;;12.50;99.90;;;;;;5085422;28;20392;-92
2021/06/18 09:07:02;;;;;;;0.50;0.50;;;12.30;99.90;;;;;;5093209;28;20431;-90
2021/06/18 09:09:31;;;;;;;0.57;0.55;;;12.20;99.90;;;;;;5082192;28;20438;-90
2021/06/18 09:12:00;;;;;;;1.98;0.80;;;12.00;99.90;;;;;;5084107;28;20966;-90
2021/06/18 09:14:33;;;;;;;0.90;0.50;;;11.90;99.90;;;;;;5084858;28;20382;-88
2021/06/18 09:17:17;;;;;;;0.70;0.55;;;11.70;99.90;;;;;;5074761;28;20404;-90
2021/06/18 09:19:51;;;;;;;1.92;0.63;;;11.60;99.90;;;;;;5086317;28;20388;-88
2021/06/18 09:22:34;;;;;;;0.83;0.57;;;11.40;99.90;;;;;;5077630;28;20461;-90
2021/06/18 09:25:16;;;;;;;0.60;0.47;;;11.20;99.90;;;;;;5081686;28;20421;-88
2021/06/18 09:27:51;;;;;;;2.00;0.73;;;11.10;99.90;;;;;;5089767;28;20478;-95
2021/06/18 09:30:26;;;;;;;1.90;1.80;;;11.00;99.90;;;;;;5094209;28;20392;-92
2021/06/18 09:33:01;;;;;;;19.88;17.95;;;10.90;99.90;;;;;;5085566;28;20538;-89
2021/06/18 09:35:29;;;;;;;14.90;13.30;;;10.80;99.90;;;;;;5105284;28;20418;-88
2021/06/18 09:37:59;;;;;;;18.98;16.98;;;10.70;99.90;;;;;;5106411;28;20895;-92
2021/06/18 09:40:27;;;;;;;20.00;17.98;;;10.60;99.90;;;;;;5093992;28;20391;-91
2021/06/18 09:42:59;;;;;;;4.45;4.05;;;10.60;99.90;;;;;;5094519;28;20419;-91
2021/06/18 09:45:35;;;;;;;5.10;4.70;;;10.50;99.90;;;;;;5094423;28;20461;-90
2021/06/18 09:48:15;;;;;;;2.15;2.05;;;10.40;99.90;;;;;;5092593;28;20866;-91
2021/06/18 09:50:47;;;;;;;2.90;2.43;;;10.40;99.90;;;;;;5092344;28;20443;-90
2021/06/18 09:53:32;;;;;;;2.40;1.10;;;10.40;99.90;;;;;;5095133;28;20388;-86
2021/06/18 09:56:05;;;;;;;2.10;0.70;;;10.30;99.90;;;;;;5090736;28;20396;-89
2021/06/18 09:58:36;;;;;;;1.10;0.50;;;10.30;99.90;;;;;;5087838;28;20906;-90
2021/06/18 10:01:34;;;;;;;0.95;0.70;;;10.30;99.90;;;;;;5091289;28;20372;-92
2021/06/18 10:04:14;;;;;;;1.38;0.80;;;10.20;99.90;;;;;;5094849;28;20407;-91
2021/06/18 10:06:43;;;;;;;1.23;0.90;;;10.20;99.90;;;;;;5088531;28;20408;-92
2021/06/18 10:09:14;;;;;;;2.03;0.80;;;10.20;99.90;;;;;;5090511;28;20445;-91
2021/06/18 10:11:45;;;;;;;1.35;1.17;;;10.10;99.90;;;;;;5090897;28;20855;-90
2021/06/18 10:14:14;;;;;;;41.45;28.52;;;10.20;99.90;;;;;;5076856;28;20384;-88
2021/06/18 10:16:43;;;;;;;5.80;3.72;;;10.10;99.90;;;;;;5091357;28;20403;-89
2021/06/18 10:19:10;;;;;;;2.70;2.42;;;10.20;99.90;;;;;;5088281;28;20390;-93
2021/06/18 10:22:03;;;;;;;11.07;6.60;;;10.20;99.90;;;;;;5075265;28;20430;-92
2021/06/18 10:24:49;;;;;;;51.37;29.40;;;10.10;99.90;;;;;;5069878;28;20433;-94
2021/06/18 10:27:18;;;;;;;26.45;15.25;;;10.10;99.90;;;;;;5079000;28;20467;-93
2021/06/18 10:29:46;;;;;;;15.38;7.60;;;10.10;99.90;;;;;;5092877;28;20416;-95
2021/06/18 10:32:28;;;;;;;28.02;14.80;;;10.10;99.90;;;;;;5095906;28;20759;-92
2021/06/18 10:35:00;;;;;;;126.45;70.65;;;10.00;99.90;;;;;;5096096;28;20383;-95
2021/06/18 10:37:31;;;;;;;42.80;20.38;;;10.00;99.90;;;;;;5090721;28;20390;-92
2021/06/18 10:40:18;;;;;;;16.70;8.77;;;10.00;99.90;;;;;;5091112;28;20392;-92
2021/06/18 10:43:10;;;;;;;33.15;17.95;;;10.00;99.90;;;;;;5089383;28;20397;-94
2021/06/18 10:45:59;;;;;;;49.70;29.20;;;10.00;99.90;;;;;;5089536;28;20402;-95
2021/06/18 10:48:47;;;;;;;13.52;7.68;;;9.90;99.90;;;;;;5092301;28;20423;-96
2021/06/18 10:51:38;;;;;;;6.55;3.50;;;9.80;99.90;;;;;;5092590;28;20495;-93
2021/06/18 10:54:17;;;;;;;3.47;2.28;;;9.90;99.90;;;;;;5092181;28;20406;-95
2021/06/18 10:56:47;;;;;;;2.25;1.52;;;9.90;99.90;;;;;;5075261;28;20389;-90
2021/06/18 10:59:20;;;;;;;2.78;2.45;;;9.80;99.90;;;;;;5092135;28;20388;-93
2021/06/18 11:01:48;;;;;;;3.28;2.97;;;9.90;99.90;;;;;;5081157;28;20424;-92
2021/06/18 11:04:15;;;;;;;5.63;4.70;;;9.80;99.90;;;;;;5093881;28;20395;-93
2021/06/18 11:06:48;;;;;;;48.72;38.35;;;9.80;99.90;;;;;;5094537;28;20475;-94
2021/06/18 11:09:44;;;;;;;14.70;12.20;;;9.80;99.90;;;;;;5087162;28;20469;-87
2021/06/18 11:12:24;;;;;;;2.35;2.15;;;9.80;99.90;;;;;;5082572;28;20418;-91
2021/06/18 11:14:54;;;;;;;2.70;2.20;;;9.70;99.90;;;;;;5088540;28;20762;-93
2021/06/18 11:17:39;;;;;;;2.63;1.70;;;9.80;99.90;;;;;;5082907;28;20398;-92
2021/06/18 11:20:11;;;;;;;1.52;1.42;;;9.70;99.90;;;;;;5077033;28;20970;-91
2021/06/18 11:23:02;;;;;;;1.65;1.55;;;9.70;99.90;;;;;;5074824;28;20405;-93
2021/06/18 11:25:40;;;;;;;1.60;1.50;;;9.70;99.90;;;;;;5087548;28;20774;-93
2021/06/18 11:28:31;;;;;;;2.35;1.88;;;9.70;99.90;;;;;;5084873;28;20394;-92
2021/06/18 11:31:07;;;;;;;2.42;1.02;;;9.70;99.90;;;;;;5071533;28;20417;-92
2021/06/18 11:33:37;;;;;;;2.23;0.90;;;9.70;99.90;;;;;;5084118;28;20408;-94
2021/06/18 11:36:24;;;;;;;0.90;0.90;;;9.70;99.90;;;;;;5085018;28;20452;-93
2021/06/18 11:38:55;;;;;;;1.75;1.50;;;9.70;99.90;;;;;;5089461;28;20429;-93
2021/06/18 11:41:24;;;;;;;1.05;1.05;;;9.70;99.90;;;;;;5074526;28;20402;-91
2021/06/18 11:43:57;;;;;;;1.85;1.10;;;9.70;99.90;;;;;;5076034;28;20431;-91
2021/06/18 11:46:28;;;;;;;0.80;0.80;;;9.70;99.90;;;;;;5090816;28;20881;-94
2021/06/18 11:48:57;;;;;;;0.80;0.80;;;9.70;99.90;;;;;;5093844;28;20743;-95
2021/06/18 11:51:30;;;;;;;0.85;0.82;;;9.70;99.90;;;;;;5093768;28;20471;-93
2021/06/18 11:53:57;;;;;;;0.88;0.88;;;9.70;99.90;;;;;;5094226;28;20487;-95
2021/06/18 11:56:29;;;;;;;0.80;0.80;;;9.70;99.90;;;;;;5095269;28;20376;-90
2021/06/18 11:58:56;;;;;;;1.05;0.80;;;9.70;99.90;;;;;;5084900;28;20408;-95
2021/06/18 12:01:25;;;;;;;0.95;0.85;;;9.80;99.90;;;;;;5091197;28;20384;-95
2021/06/18 12:03:54;;;;;;;0.50;0.50;;;9.80;99.90;;;;;;5077802;28;20381;-96
2021/06/18 12:06:22;;;;;;;0.50;0.50;;;9.80;99.90;;;;;;5092213;28;20413;-94
2021/06/18 12:09:17;;;;;;;0.60;0.60;;;9.80;99.90;;;;;;5079356;28;20469;-95
2021/06/18 12:11:58;;;;;;;1.13;0.80;;;9.90;99.90;;;;;;5077168;28;20389;-95
2021/06/18 12:14:33;;;;;;;1.63;0.67;;;9.80;99.90;;;;;;5091497;28;20380;-95
2021/06/18 12:17:00;;;;;;;1.30;0.88;;;9.90;99.90;;;;;;5094601;28;20885;-95
2021/06/18 12:19:30;;;;;;;1.20;0.77;;;9.90;99.90;;;;;;5094414;28;20388;-95
2021/06/18 12:22:02;;;;;;;2.00;0.90;;;9.90;99.90;;;;;;5092216;28;20399;-93
2021/06/18 12:24:33;;;;;;;1.17;0.80;;;9.90;99.90;;;;;;5102741;28;20387;-94
2021/06/18 12:27:02;;;;;;;0.90;0.75;;;9.90;99.90;;;;;;5089752;28;20398;-94
2021/06/18 12:29:30;;;;;;;0.60;0.60;;;9.90;99.90;;;;;;5082659;28;20463;-93
2021/06/18 12:31:58;;;;;;;0.55;0.55;;;9.90;99.90;;;;;;5094746;28;20447;-94
2021/06/18 12:34:26;;;;;;;0.70;0.60;;;9.90;99.90;;;;;;5095942;28;20423;-93
2021/06/18 12:37:06;;;;;;;0.63;0.63;;;9.90;99.90;;;;;;5094310;28;20420;-91
2021/06/18 12:39:52;;;;;;;0.50;0.50;;;9.90;99.90;;;;;;5075895;28;20378;-96
2021/06/18 12:42:32;;;;;;;0.70;0.60;;;9.90;99.90;;;;;;5082605;28;20397;-95
2021/06/18 12:45:12;;;;;;;0.98;0.63;;;9.90;99.90;;;;;;5096972;28;20793;-93
2021/06/18 12:47:45;;;;;;;1.02;0.90;;;10.00;99.90;;;;;;5094225;28;20526;-94
2021/06/18 12:50:33;;;;;;;2.05;0.70;;;9.90;99.90;;;;;;5097978;28;20380;-95
2021/06/18 12:53:03;;;;;;;1.10;0.80;;;9.90;99.90;;;;;;5102185;28;20451;-95
2021/06/18 12:55:38;;;;;;;0.70;0.70;;;9.90;99.90;;;;;;5100580;28;20458;-94
2021/06/18 12:58:17;;;;;;;1.80;0.70;;;9.90;99.90;;;;;;5115970;28;20374;-96
2021/06/18 13:01:11;;;;;;;0.80;0.67;;;9.90;99.90;;;;;;5120280;28;20431;-95
2021/06/18 13:03:57;;;;;;;0.85;0.73;;;9.90;99.90;;;;;;5108080;28;20377;-96
2021/06/18 13:06:26;;;;;;;1.30;0.80;;;10.00;99.90;;;;;;5108264;28;20910;-95
2021/06/18 13:08:58;;;;;;;0.70;0.70;;;10.00;99.90;;;;;;5102180;28;20377;-96